createdAt,value
2022-11-22T00:11:56.093Z,1005.16
2022-11-22T00:27:12.032Z,1005.36
2022-11-22T00:42:28.978Z,1005.31
2022-11-22T00:57:47.036Z,1005.42
2022-11-22T01:13:03.999Z,1005.44
2022-11-22T01:28:19.953Z,1005.5
2022-11-22T01:43:35.918Z,1005.37
2022-11-22T01:58:52.914Z,1005.48
2022-11-22T02:14:08.893Z,1005.59
2022-11-22T02:29:24.865Z,1005.51
2022-11-22T02:44:57.254Z,1005.41
2022-11-22T02:59:59.840Z,1005.39
2022-11-22T03:15:15.791Z,1005.52
2022-11-22T03:30:31.784Z,1005.17
2022-11-22T03:45:48.768Z,1005.25
2022-11-22T04:01:04.783Z,1005.39
2022-11-22T04:16:21.744Z,1005.31
2022-11-22T04:31:38.719Z,1005.63
2022-11-22T04:46:55.697Z,1005.64
2022-11-22T05:02:11.677Z,1005.66
2022-11-22T05:17:27.685Z,1005.83
2022-11-22T05:32:43.661Z,1006.11
2022-11-22T05:48:00.649Z,1006.22
2022-11-22T06:03:17.586Z,1006.32
2022-11-22T06:18:34.629Z,1006.54
2022-11-22T06:33:51.566Z,1006.67
2022-11-22T06:49:08.589Z,1006.98
2022-11-22T07:04:24.581Z,1007.13
2022-11-22T07:19:40.540Z,1007.39
2022-11-22T07:34:56.521Z,1007.51
2022-11-22T07:50:13.506Z,1007.51
2022-11-22T08:05:30.508Z,1007.51
2022-11-22T08:20:47.467Z,1007.92
2022-11-22T08:36:03.462Z,1008.16
2022-11-22T08:51:20.450Z,1008.58
2022-11-22T09:21:52.404Z,1008.75
2022-11-22T09:37:09.376Z,1008.74
2022-11-22T09:52:27.340Z,1008.97
2022-11-22T10:07:44.374Z,1008.99
2022-11-22T10:23:00.311Z,1008.68
2022-11-22T10:38:16.282Z,1008.48
2022-11-22T10:53:33.300Z,1008.17
2022-11-22T11:09:36.206Z,1008.14
2022-11-22T11:24:05.182Z,1008.1
2022-11-22T11:39:22.211Z,1007.88
2022-11-22T11:54:40.149Z,1007.68
2022-11-22T12:09:57.168Z,1007.59
2022-11-22T12:25:31.405Z,1007.4
2022-11-22T12:40:29.113Z,1007.34
2022-11-22T12:55:46.092Z,1007.44
2022-11-22T13:11:02.072Z,1007.24
2022-11-22T13:26:19.037Z,1007.44
2022-11-22T13:41:36.016Z,1007.46
2022-11-22T13:56:53.985Z,1007.58
2022-11-22T14:12:09.955Z,1007.57
2022-11-22T14:27:25.956Z,1007.74
2022-11-22T14:42:41.898Z,1007.91
2022-11-22T14:57:58.888Z,1008.05
2022-11-22T15:13:14.860Z,1008.1
2022-11-22T15:59:05.807Z,1008.22
2022-11-22T16:14:21.795Z,1008.12
2022-11-22T16:29:37.749Z,1008.15
2022-11-22T16:44:53.738Z,1008.37
2022-11-22T17:00:10.722Z,1008.24
2022-11-22T17:15:27.706Z,1008.13
2022-11-22T17:30:44.679Z,1008.3
2022-11-22T17:46:00.676Z,1008.6
2022-11-22T18:01:17.658Z,1008.84
2022-11-22T18:16:33.636Z,1008.87
2022-11-22T18:31:52.589Z,1008.86
2022-11-22T18:47:05.635Z,1008.99
2022-11-22T19:02:22.578Z,1009.05
2022-11-22T19:17:39.569Z,1009.11
2022-11-22T19:32:56.538Z,1009.23
2022-11-22T19:48:12.533Z,1009.16
2022-11-22T20:03:29.496Z,1008.97
2022-11-22T20:18:45.493Z,1008.82
2022-11-22T20:34:01.459Z,1009.03
2022-11-22T20:49:18.451Z,1009.18
2022-11-22T21:04:36.457Z,1009.26
2022-11-22T21:19:53.416Z,1009.35
2022-11-22T21:35:09.426Z,1009.25
2022-11-22T21:50:21.355Z,1009.36
2022-11-22T22:05:37.379Z,1009.24
2022-11-22T22:20:54.405Z,1009.07
2022-11-22T22:36:11.374Z,1009.27
2022-11-22T22:51:32.841Z,1009.26
2022-11-22T23:06:44.331Z,1009.32
2022-11-22T23:22:00.316Z,1009.44
2022-11-22T23:37:16.291Z,1009.45
2022-11-22T23:52:33.256Z,1009.64
